createdAt,value
2018-03-03T00:00:30.557Z,32.53
2018-03-03T00:02:58.603Z,31.23
2018-03-03T00:05:26.617Z,32.85
2018-03-03T00:07:54.738Z,34.75
2018-03-03T00:10:22.812Z,32.25
2018-03-03T00:12:50.827Z,33.92
2018-03-03T00:15:18.875Z,34.10
2018-03-03T00:17:46.949Z,33.20
2018-03-03T00:20:15.006Z,32.08
2018-03-03T00:22:43.054Z,33.50
2018-03-03T00:25:11.110Z,35.03
2018-03-03T00:27:39.142Z,33.47
2018-03-03T00:30:07.184Z,32.42
2018-03-03T00:32:35.211Z,37.80
2018-03-03T00:35:03.260Z,32.97
2018-03-03T00:37:31.318Z,36.20
2018-03-03T00:39:59.383Z,31.90
2018-03-03T00:42:27.458Z,34.95
2018-03-03T00:44:55.482Z,32.63
2018-03-03T00:47:23.534Z,34.17
2018-03-03T00:49:51.567Z,34.00
2018-03-03T00:52:19.591Z,30.48
2018-03-03T00:54:47.627Z,33.53
2018-03-03T00:57:15.654Z,35.67
2018-03-03T00:59:43.694Z,29.35
2018-03-03T01:02:11.738Z,31.62
2018-03-03T01:04:39.765Z,33.40
2018-03-03T01:07:07.827Z,37.72
2018-03-03T01:09:35.823Z,30.37
2018-03-03T01:12:03.851Z,32.30
2018-03-03T01:14:31.929Z,36.90
2018-03-03T01:17:00.011Z,31.70
2018-03-03T01:19:28.078Z,33.13
2018-03-03T01:21:56.093Z,34.85
2018-03-03T01:24:24.164Z,33.97
2018-03-03T01:26:52.224Z,33.95
2018-03-03T01:29:20.291Z,29.85
2018-03-03T01:31:48.366Z,35.88
2018-03-03T01:34:16.371Z,37.95
2018-03-03T01:36:44.414Z,32.65
2018-03-03T01:39:12.446Z,34.20
2018-03-03T01:41:40.446Z,33.55
2018-03-03T01:44:08.550Z,33.78
2018-03-03T01:46:36.635Z,33.33
2018-03-03T01:49:04.663Z,34.55
2018-03-03T01:51:38.787Z,37.00
2018-03-03T01:54:06.815Z,33.47
2018-03-03T01:56:34.852Z,34.88
2018-03-03T01:59:02.862Z,33.67
2018-03-03T02:01:30.902Z,30.60
2018-03-03T02:03:58.922Z,37.40
2018-03-03T02:06:26.954Z,32.75
2018-03-03T02:08:55.034Z,34.33
2018-03-03T02:11:23.120Z,37.40
2018-03-03T02:13:51.123Z,34.53
2018-03-03T02:16:19.137Z,34.90
2018-03-03T02:18:47.218Z,37.05
2018-03-03T02:21:15.248Z,37.30
2018-03-03T02:23:43.321Z,39.67
2018-03-03T02:26:11.345Z,34.33
2018-03-03T02:28:39.406Z,34.40
2018-03-03T02:31:07.514Z,40.50
2018-03-03T02:33:35.569Z,36.22
2018-03-03T02:36:03.562Z,36.63
2018-03-03T02:38:31.612Z,32.72
2018-03-03T02:40:59.659Z,38.28
2018-03-03T02:43:27.700Z,36.53
2018-03-03T02:45:56.800Z,36.47
2018-03-03T02:48:24.856Z,37.45
2018-03-03T02:50:52.871Z,36.05
2018-03-03T02:53:20.952Z,35.60
2018-03-03T02:55:48.982Z,35.35
2018-03-03T02:58:17.037Z,35.75
2018-03-03T03:00:45.112Z,34.63
2018-03-03T03:03:13.116Z,33.97
2018-03-03T03:05:41.146Z,36.70
2018-03-03T03:08:09.171Z,34.22
2018-03-03T03:10:37.205Z,37.78
2018-03-03T03:13:05.234Z,33.22
2018-03-03T03:15:33.242Z,34.05
2018-03-03T03:18:01.315Z,32.40
2018-03-03T03:20:29.337Z,34.45
2018-03-03T03:22:57.445Z,35.65
2018-03-03T03:25:25.482Z,38.08
2018-03-03T03:27:53.521Z,37.20
2018-03-03T03:30:21.542Z,33.63
2018-03-03T03:32:49.595Z,32.72
2018-03-03T03:35:17.602Z,34.65
2018-03-03T03:37:45.630Z,37.10
2018-03-03T03:40:13.667Z,36.90
2018-03-03T03:42:41.668Z,34.53
2018-03-03T03:45:09.705Z,37.35
2018-03-03T03:47:37.778Z,30.30
2018-03-03T03:50:05.822Z,34.78
2018-03-03T03:52:33.839Z,33.75
2018-03-03T03:55:01.906Z,33.78
2018-03-03T03:57:29.918Z,34.30
2018-03-03T03:59:57.938Z,33.15
2018-03-03T04:02:25.990Z,30.45
2018-03-03T04:04:54.027Z,31.83
2018-03-03T04:07:22.086Z,37.33
2018-03-03T04:09:50.166Z,33.20
2018-03-03T04:12:19.214Z,34.65
2018-03-03T04:14:47.243Z,35.30
2018-03-03T04:17:15.313Z,34.83
2018-03-03T04:19:43.333Z,37.47
2018-03-03T04:22:11.369Z,31.40
2018-03-03T04:24:39.447Z,36.50
2018-03-03T04:27:07.498Z,36.40
2018-03-03T04:29:35.582Z,32.53
2018-03-03T04:32:03.695Z,34.40
2018-03-03T04:34:31.706Z,34.05
2018-03-03T04:36:59.770Z,34.13
2018-03-03T04:39:27.803Z,35.13
2018-03-03T04:41:55.830Z,30.98
2018-03-03T04:44:23.915Z,33.92
2018-03-03T04:46:53.022Z,32.40
2018-03-03T04:49:21.086Z,35.33
2018-03-03T04:51:49.178Z,32.63
2018-03-03T04:54:17.221Z,33.63
2018-03-03T04:56:45.305Z,34.20
2018-03-03T04:59:18.213Z,34.28
2018-03-03T05:01:49.367Z,33.45
2018-03-03T05:04:38.354Z,31.30
2018-03-03T05:07:11.353Z,36.03
2018-03-03T05:09:39.410Z,34.78
2018-03-03T05:12:07.444Z,36.60
2018-03-03T05:14:56.486Z,38.30
2018-03-03T05:17:31.591Z,35.70
2018-03-03T05:20:01.591Z,35.75
2018-03-03T05:22:35.582Z,36.90
2018-03-03T05:25:09.741Z,38.22
2018-03-03T05:27:43.967Z,35.10
2018-03-03T05:30:18.242Z,38.40
2018-03-03T05:33:01.247Z,31.48
2018-03-03T05:35:46.233Z,31.87
2018-03-03T05:38:29.199Z,34.38
2018-03-03T05:41:18.275Z,37.30
2018-03-03T05:44:07.390Z,32.53
2018-03-03T05:46:52.333Z,37.40
2018-03-03T05:49:26.651Z,35.47
2018-03-03T05:51:55.477Z,38.13
2018-03-03T05:54:42.371Z,32.22
2018-03-03T05:57:29.382Z,32.08
2018-03-03T06:00:03.644Z,30.40
2018-03-03T06:02:41.702Z,32.40
2018-03-03T06:05:19.723Z,37.63
2018-03-03T06:08:02.715Z,33.70
2018-03-03T06:10:34.727Z,34.88
2018-03-03T06:13:02.822Z,32.55
2018-03-03T06:15:30.913Z,36.05
2018-03-03T06:17:58.938Z,34.13
2018-03-03T06:20:26.982Z,33.20
2018-03-03T06:22:55.002Z,36.28
2018-03-03T06:25:23.022Z,33.83
2018-03-03T06:27:51.054Z,32.80
2018-03-03T06:30:19.098Z,30.65
2018-03-03T06:32:47.122Z,35.03
2018-03-03T06:35:15.186Z,34.25
2018-03-03T06:37:43.388Z,34.35
2018-03-03T06:40:11.473Z,32.65
2018-03-03T06:42:39.473Z,30.92
2018-03-03T06:45:07.482Z,36.42
2018-03-03T06:47:35.519Z,35.60
2018-03-03T06:50:03.590Z,34.50
2018-03-03T06:52:31.646Z,35.28
2018-03-03T06:54:59.670Z,34.60
2018-03-03T06:57:27.698Z,33.35
2018-03-03T06:59:55.802Z,35.08
2018-03-03T07:02:23.830Z,37.33
2018-03-03T07:04:51.887Z,34.88
2018-03-03T07:07:19.921Z,34.53
2018-03-03T07:09:47.961Z,34.80
2018-03-03T07:12:16.018Z,40.03
2018-03-03T07:14:59.898Z,35.03
2018-03-03T07:17:27.938Z,33.80
2018-03-03T07:19:55.930Z,35.30
2018-03-03T07:22:23.992Z,31.75
2018-03-03T07:24:51.987Z,34.20
2018-03-03T07:27:20.026Z,33.45
2018-03-03T07:29:50.131Z,31.83
2018-03-03T07:32:18.174Z,36.17
2018-03-03T07:34:46.212Z,33.38
2018-03-03T07:37:14.249Z,31.83
2018-03-03T07:39:42.310Z,32.22
2018-03-03T07:42:10.310Z,34.50
2018-03-03T07:44:38.347Z,33.28
2018-03-03T07:47:06.378Z,31.92
2018-03-03T07:49:34.430Z,33.20
2018-03-03T07:52:02.486Z,32.15
2018-03-03T07:54:45.110Z,32.10
2018-03-03T07:57:13.077Z,35.20
2018-03-03T07:59:41.013Z,35.33
2018-03-03T08:02:08.933Z,31.90
2018-03-03T08:04:36.893Z,34.10
2018-03-03T08:07:04.844Z,31.25
2018-03-03T08:09:32.784Z,34.05
2018-03-03T08:12:00.725Z,36.97
2018-03-03T08:14:28.677Z,33.42
2018-03-03T08:16:56.609Z,35.45
2018-03-03T08:19:24.538Z,37.05
2018-03-03T08:21:52.475Z,35.20
2018-03-03T08:24:20.437Z,32.97
2018-03-03T08:26:48.502Z,33.58
2018-03-03T08:29:16.485Z,36.85
2018-03-03T08:31:44.413Z,36.50
2018-03-03T08:34:12.341Z,34.72
2018-03-03T08:36:40.271Z,37.45
2018-03-03T08:39:08.210Z,35.45
2018-03-03T08:41:36.140Z,30.48
2018-03-03T08:44:04.110Z,35.20
2018-03-03T08:46:32.038Z,31.77
2018-03-03T08:48:59.969Z,34.25
2018-03-03T08:51:27.908Z,34.80
2018-03-03T08:53:55.848Z,35.13
2018-03-03T08:56:23.766Z,35.40
2018-03-03T08:58:51.698Z,38.17
2018-03-03T09:01:19.625Z,33.80
2018-03-03T09:03:47.557Z,37.58
2018-03-03T09:06:15.505Z,38.72
2018-03-03T09:08:43.427Z,34.13
2018-03-03T09:11:11.368Z,38.38
2018-03-03T09:13:39.329Z,37.03
2018-03-03T09:16:07.242Z,38.47
2018-03-03T09:18:35.199Z,35.63
2018-03-03T09:21:03.147Z,35.58
2018-03-03T09:23:31.089Z,37.08
2018-03-03T09:25:59.017Z,36.72
2018-03-03T09:28:26.964Z,33.40
2018-03-03T09:30:54.924Z,38.92
2018-03-03T09:33:22.852Z,36.35
2018-03-03T09:35:50.789Z,35.58
2018-03-03T09:38:18.717Z,36.08
2018-03-03T09:40:46.633Z,37.92
2018-03-03T09:43:14.585Z,34.38
2018-03-03T09:45:42.541Z,37.30
2018-03-03T09:48:10.485Z,34.97
2018-03-03T09:50:38.440Z,35.88
2018-03-03T09:53:06.373Z,35.40
2018-03-03T09:55:34.317Z,37.08
2018-03-03T09:58:03.317Z,36.05
2018-03-03T10:00:31.270Z,36.92
2018-03-03T10:02:59.221Z,36.22
2018-03-03T10:05:27.153Z,34.38
2018-03-03T10:07:55.089Z,36.78
2018-03-03T10:10:24.093Z,35.95
2018-03-03T10:12:52.037Z,36.70
2018-03-03T10:15:19.965Z,37.33
2018-03-03T10:17:47.892Z,36.75
2018-03-03T10:20:15.826Z,37.58
2018-03-03T10:22:43.772Z,36.05
2018-03-03T10:25:11.710Z,34.72
2018-03-03T10:27:39.654Z,35.35
2018-03-03T10:30:07.580Z,35.72
2018-03-03T10:32:35.509Z,35.85
2018-03-03T10:35:03.488Z,33.65
2018-03-03T10:37:31.425Z,36.65
2018-03-03T10:39:59.363Z,37.88
2018-03-03T10:42:27.313Z,34.58
2018-03-03T10:44:55.233Z,36.22
2018-03-03T10:47:23.166Z,38.50
2018-03-03T10:49:51.117Z,36.95
2018-03-03T10:52:19.028Z,35.17
2018-03-03T10:54:46.972Z,37.00
2018-03-03T10:57:14.926Z,36.72
2018-03-03T10:59:42.883Z,34.97
2018-03-03T11:02:10.857Z,37.50
2018-03-03T11:04:38.794Z,35.00
2018-03-03T11:07:06.721Z,33.22
2018-03-03T11:09:34.690Z,40.22
2018-03-03T11:12:02.616Z,38.22
2018-03-03T11:14:30.545Z,36.13
2018-03-03T11:16:59.530Z,38.15
2018-03-03T11:19:27.476Z,38.90
2018-03-03T11:21:55.410Z,38.78
2018-03-03T11:24:23.340Z,38.78
2018-03-03T11:26:51.275Z,36.45
2018-03-03T11:29:19.213Z,35.00
2018-03-03T11:31:47.133Z,38.33
2018-03-03T11:34:15.078Z,35.75
2018-03-03T11:36:43.016Z,36.78
2018-03-03T11:39:10.953Z,37.88
2018-03-03T11:41:38.908Z,33.63
2018-03-03T11:44:06.837Z,35.08
2018-03-03T11:46:34.802Z,31.15
2018-03-03T11:49:02.729Z,32.35
2018-03-03T11:51:30.652Z,31.08
2018-03-03T11:53:58.593Z,30.35
2018-03-03T11:56:26.526Z,31.70
2018-03-03T11:58:54.455Z,31.50
2018-03-03T12:01:22.385Z,36.13
2018-03-03T12:03:50.317Z,32.28
2018-03-03T12:06:18.261Z,31.65
2018-03-03T12:08:46.197Z,31.92
2018-03-03T12:11:14.402Z,33.65
2018-03-03T12:13:42.325Z,32.00
2018-03-03T12:16:10.254Z,32.97
2018-03-03T12:18:38.213Z,33.17
2018-03-03T12:21:06.156Z,35.08
2018-03-03T12:23:34.094Z,32.92
2018-03-03T12:26:02.093Z,35.63
2018-03-03T12:28:30.021Z,33.25
2018-03-03T12:30:57.961Z,31.70
2018-03-03T12:33:25.933Z,32.88
2018-03-03T12:35:53.869Z,33.85
2018-03-03T12:38:21.813Z,34.55
2018-03-03T12:40:49.761Z,32.53
2018-03-03T12:43:17.698Z,33.03
2018-03-03T12:45:45.637Z,32.83
2018-03-03T12:48:13.585Z,32.30
2018-03-03T12:50:41.505Z,30.83
2018-03-03T12:53:09.421Z,32.15
2018-03-03T12:55:37.509Z,29.70
2018-03-03T12:58:05.428Z,29.58
2018-03-03T13:00:33.356Z,31.20
2018-03-03T13:03:01.289Z,30.40
2018-03-03T13:05:29.204Z,30.85
2018-03-03T13:07:57.146Z,31.35
2018-03-03T13:10:25.082Z,29.55
2018-03-03T13:12:53.033Z,32.58
2018-03-03T13:15:20.963Z,30.67
2018-03-03T13:17:48.913Z,34.42
2018-03-03T13:20:16.880Z,30.80
2018-03-03T13:22:45.999Z,30.25
2018-03-03T13:25:13.930Z,31.62
2018-03-03T13:27:41.865Z,30.50
2018-03-03T13:30:09.805Z,31.33
2018-03-03T13:32:37.737Z,32.97
2018-03-03T13:35:05.674Z,30.23
2018-03-03T13:37:33.597Z,29.63
2018-03-03T13:40:01.552Z,30.85
2018-03-03T13:42:29.474Z,29.17
2018-03-03T13:44:57.407Z,30.90
2018-03-03T13:47:25.374Z,31.58
2018-03-03T13:49:53.317Z,30.08
2018-03-03T13:52:21.255Z,30.48
2018-03-03T13:54:49.193Z,31.65
2018-03-03T13:57:17.117Z,30.73
2018-03-03T13:59:45.049Z,30.80
2018-03-03T14:02:12.981Z,31.65
2018-03-03T14:04:40.921Z,31.83
2018-03-03T14:07:08.870Z,30.05
2018-03-03T14:09:36.806Z,30.45
2018-03-03T14:12:04.881Z,29.27
2018-03-03T14:14:32.801Z,33.58
2018-03-03T14:17:00.737Z,34.45
2018-03-03T14:19:28.666Z,31.60
2018-03-03T14:21:56.606Z,30.92
2018-03-03T14:24:24.550Z,31.87
2018-03-03T14:26:52.481Z,32.35
2018-03-03T14:29:20.410Z,30.90
2018-03-03T14:31:48.353Z,30.25
2018-03-03T14:34:16.413Z,29.77
2018-03-03T14:36:44.330Z,30.75
2018-03-03T14:39:12.265Z,30.58
2018-03-03T14:41:40.202Z,31.17
2018-03-03T14:44:08.148Z,31.30
2018-03-03T14:46:36.089Z,30.88
2018-03-03T14:49:04.046Z,31.90
2018-03-03T14:51:31.969Z,29.80
2018-03-03T14:53:59.929Z,31.75
2018-03-03T14:56:27.871Z,32.85
2018-03-03T14:58:55.829Z,34.13
2018-03-03T15:01:23.778Z,31.42
2018-03-03T15:03:51.710Z,32.10
2018-03-03T15:06:19.630Z,30.02
2018-03-03T15:08:47.630Z,31.98
2018-03-03T15:11:15.549Z,32.15
2018-03-03T15:13:44.494Z,32.67
2018-03-03T15:16:12.547Z,30.35
2018-03-03T15:18:40.476Z,32.90
2018-03-03T15:21:08.407Z,32.55
2018-03-03T15:23:36.362Z,32.45
2018-03-03T15:26:04.319Z,30.77
2018-03-03T15:28:32.273Z,31.73
2018-03-03T15:31:00.217Z,32.13
2018-03-03T15:33:28.161Z,31.48
2018-03-03T15:35:56.089Z,31.62
2018-03-03T15:38:24.041Z,31.48
2018-03-03T15:40:51.977Z,31.77
2018-03-03T15:43:19.917Z,29.20
2018-03-03T15:45:47.846Z,31.25
2018-03-03T15:48:15.802Z,30.17
2018-03-03T15:50:43.721Z,29.63
2018-03-03T15:53:11.654Z,33.33
2018-03-03T15:55:39.614Z,32.13
2018-03-03T15:58:07.539Z,32.72
2018-03-03T16:00:35.473Z,31.23
2018-03-03T16:03:03.409Z,30.42
2018-03-03T16:05:31.349Z,31.50
2018-03-03T16:07:59.286Z,32.75
2018-03-03T16:10:27.237Z,31.83
2018-03-03T16:12:55.154Z,30.15
2018-03-03T16:15:23.106Z,31.67
2018-03-03T16:17:51.050Z,29.27
2018-03-03T16:20:18.982Z,33.63
2018-03-03T16:22:46.962Z,29.98
2018-03-03T16:25:14.901Z,27.70
2018-03-03T16:27:42.916Z,31.27
2018-03-03T16:30:10.850Z,33.85
2018-03-03T16:32:38.798Z,28.48
2018-03-03T16:35:06.746Z,30.95
2018-03-03T16:37:34.692Z,30.50
2018-03-03T16:40:02.637Z,31.67
2018-03-03T16:42:30.562Z,30.37
2018-03-03T16:44:58.495Z,30.62
2018-03-03T16:47:26.501Z,32.45
2018-03-03T16:49:54.429Z,33.13
2018-03-03T16:52:24.241Z,31.50
2018-03-03T16:54:52.517Z,33.63
2018-03-03T16:57:20.472Z,38.65
2018-03-03T16:59:48.406Z,31.85
2018-03-03T17:02:16.346Z,33.90
2018-03-03T17:04:44.269Z,33.05
2018-03-03T17:07:12.229Z,31.25
2018-03-03T17:09:40.158Z,31.95
2018-03-03T17:12:08.102Z,39.67
2018-03-03T17:14:36.047Z,34.88
2018-03-03T17:17:04.026Z,33.90
2018-03-03T17:19:31.958Z,34.42
2018-03-03T17:21:59.881Z,33.75
2018-03-03T17:24:27.954Z,34.15
2018-03-03T17:26:55.885Z,31.25
2018-03-03T17:29:23.814Z,30.02
2018-03-03T17:31:51.779Z,33.50
2018-03-03T17:34:19.709Z,30.40
2018-03-03T17:36:47.630Z,32.13
2018-03-03T17:39:15.577Z,33.10
2018-03-03T17:41:43.505Z,32.47
2018-03-03T17:44:11.449Z,31.92
2018-03-03T17:46:39.407Z,29.75
2018-03-03T17:49:07.325Z,29.98
2018-03-03T17:51:35.260Z,32.78
2018-03-03T17:54:03.214Z,35.90
2018-03-03T17:56:31.134Z,31.08
2018-03-03T17:58:59.095Z,32.22
2018-03-03T18:01:27.054Z,33.45
2018-03-03T18:03:54.978Z,32.05
2018-03-03T18:06:22.894Z,32.95
2018-03-03T18:08:50.842Z,32.08
2018-03-03T18:11:18.763Z,34.33
2018-03-03T18:13:54.890Z,34.75
2018-03-03T18:16:22.845Z,29.55
2018-03-03T18:18:50.769Z,32.65
2018-03-03T18:21:18.705Z,37.00
2018-03-03T18:23:46.638Z,28.38
2018-03-03T18:26:14.554Z,33.03
2018-03-03T18:28:42.486Z,31.00
2018-03-03T18:31:10.426Z,32.47
2018-03-03T18:33:38.345Z,31.25
2018-03-03T18:36:06.299Z,32.58
2018-03-03T18:38:34.250Z,30.88
2018-03-03T18:41:02.206Z,29.92
2018-03-03T18:43:30.132Z,33.95
2018-03-03T18:45:58.083Z,33.83
2018-03-03T18:48:26.001Z,31.80
2018-03-03T18:50:54.270Z,29.83
2018-03-03T18:53:22.225Z,35.67
2018-03-03T18:55:50.538Z,29.42
2018-03-03T18:58:18.470Z,35.78
2018-03-03T19:00:46.403Z,35.17
2018-03-03T19:03:14.329Z,32.53
2018-03-03T19:05:42.258Z,32.30
2018-03-03T19:08:10.823Z,35.08
2018-03-03T19:10:38.798Z,32.30
2018-03-03T19:13:07.079Z,34.60
2018-03-03T19:15:35.054Z,32.47
2018-03-03T19:18:02.976Z,36.13
2018-03-03T19:20:30.967Z,37.10
2018-03-03T19:22:58.870Z,32.28
2018-03-03T19:25:26.809Z,31.75
2018-03-03T19:27:54.744Z,33.85
2018-03-03T19:30:23.766Z,32.05
2018-03-03T19:32:51.717Z,32.60
2018-03-03T19:35:19.650Z,34.65
2018-03-03T19:37:47.582Z,32.45
2018-03-03T19:40:15.510Z,33.08
2018-03-03T19:42:43.432Z,33.20
2018-03-03T19:45:11.363Z,35.60
2018-03-03T19:47:39.297Z,36.47
2018-03-03T19:50:07.227Z,34.50
2018-03-03T19:52:35.165Z,32.80
2018-03-03T19:55:07.606Z,34.25
2018-03-03T19:57:35.594Z,33.53
2018-03-03T20:00:03.541Z,35.67
2018-03-03T20:02:31.458Z,34.40
2018-03-03T20:04:59.393Z,34.40
2018-03-03T20:07:27.845Z,34.75
2018-03-03T20:09:55.958Z,35.78
2018-03-03T20:12:23.925Z,34.72
2018-03-03T20:14:51.965Z,38.22
2018-03-03T20:17:19.898Z,39.17
2018-03-03T20:19:47.830Z,35.38
2018-03-03T20:22:15.777Z,37.92
2018-03-03T20:24:43.701Z,34.70
2018-03-03T20:27:11.689Z,38.00
2018-03-03T20:29:39.787Z,37.75
2018-03-03T20:32:07.736Z,35.13
2018-03-03T20:34:35.721Z,38.53
2018-03-03T20:37:03.685Z,38.25
2018-03-03T20:39:31.674Z,36.35
2018-03-03T20:41:59.847Z,39.78
2018-03-03T20:44:27.837Z,35.10
2018-03-03T20:46:55.814Z,36.33
2018-03-03T20:49:23.766Z,38.15
2018-03-03T20:51:51.725Z,36.00
2018-03-03T20:54:19.702Z,36.55
2018-03-03T20:56:47.652Z,40.75
2018-03-03T20:59:15.602Z,40.15
2018-03-03T21:01:43.541Z,41.92
2018-03-03T21:04:11.503Z,41.08
2018-03-03T21:06:39.450Z,35.97
2018-03-03T21:09:07.449Z,39.40
2018-03-03T21:11:38.366Z,36.97
2018-03-03T21:14:06.393Z,35.70
2018-03-03T21:16:34.404Z,39.63
2018-03-03T21:19:02.521Z,35.47
2018-03-03T21:21:30.614Z,37.28
2018-03-03T21:23:58.681Z,39.75
2018-03-03T21:26:26.653Z,38.78
2018-03-03T21:28:54.606Z,39.47
2018-03-03T21:31:22.561Z,41.63
2018-03-03T21:33:50.485Z,37.83
2018-03-03T21:36:18.430Z,35.22
2018-03-03T21:38:46.354Z,42.20
2018-03-03T21:41:14.289Z,43.38
2018-03-03T21:43:42.241Z,40.70
2018-03-03T21:46:10.222Z,39.97
2018-03-03T21:48:38.150Z,41.05
2018-03-03T21:51:06.106Z,39.15
2018-03-03T21:53:34.049Z,37.67
2018-03-03T21:56:01.995Z,52.60
2018-03-03T21:58:29.925Z,47.85
2018-03-03T22:00:57.891Z,43.13
2018-03-03T22:03:25.822Z,40.97
2018-03-03T22:05:53.774Z,42.60
2018-03-03T22:08:21.694Z,42.60
2018-03-03T22:10:49.610Z,43.47
2018-03-03T22:13:17.562Z,39.50
2018-03-03T22:15:45.483Z,38.03
2018-03-03T22:18:13.402Z,39.42
2018-03-03T22:20:41.342Z,37.42
2018-03-03T22:23:09.280Z,39.08
2018-03-03T22:25:37.217Z,41.03
2018-03-03T22:28:05.150Z,43.53
2018-03-03T22:30:33.085Z,41.33
2018-03-03T22:33:01.029Z,42.13
2018-03-03T22:35:28.982Z,37.53
2018-03-03T22:37:56.946Z,41.35
2018-03-03T22:40:24.877Z,40.50
2018-03-03T22:42:52.858Z,38.60
2018-03-03T22:45:20.811Z,40.08
2018-03-03T22:47:48.783Z,42.67
2018-03-03T22:50:16.738Z,44.55
2018-03-03T22:52:44.661Z,38.63
2018-03-03T22:55:12.623Z,40.80
2018-03-03T22:57:40.574Z,40.40
2018-03-03T23:00:08.575Z,40.40
2018-03-03T23:02:36.615Z,39.20
2018-03-03T23:05:04.668Z,40.85
2018-03-03T23:07:32.809Z,42.60
2018-03-03T23:10:00.745Z,39.72
2018-03-03T23:12:28.685Z,41.37
2018-03-03T23:14:56.649Z,41.55
2018-03-03T23:17:24.577Z,42.47
2018-03-03T23:19:52.545Z,38.33
2018-03-03T23:22:20.486Z,41.67
2018-03-03T23:24:48.425Z,43.60
2018-03-03T23:27:16.434Z,41.58
2018-03-03T23:29:44.373Z,42.97
2018-03-03T23:32:12.402Z,37.35
2018-03-03T23:34:40.341Z,42.00
2018-03-03T23:37:08.269Z,39.80
2018-03-03T23:39:36.199Z,38.95
2018-03-03T23:42:04.142Z,40.30
2018-03-03T23:44:32.093Z,39.40
2018-03-03T23:47:00.023Z,40.47
2018-03-03T23:49:27.973Z,42.50
2018-03-03T23:51:55.917Z,36.83
2018-03-03T23:54:23.834Z,39.85
2018-03-03T23:56:51.781Z,38.78
2018-03-03T23:59:19.729Z,43.35
